Time;durP1;ratioP1;P1;durP2;ratioP2;P2;SDS_P1;SDS_P2;PMS_P1;PMS_P2;Temp;Humidity;BMP_temperature;BMP_pressure;BME280_temperature;BME280_humidity;BME280_pressure;Samples;Min_cycle;Max_cycle;Signal;HPM_P1;HPM_P2
2020/12/02 00:01:29;;;;;;;61.53;40.90;;;6.40;99.90;;;;;;4997474;28;20458;-75
2020/12/02 00:04:01;;;;;;;69.90;41.53;;;6.40;99.90;;;;;;4996170;28;20463;-75
2020/12/02 00:06:29;;;;;;;53.00;40.70;;;6.40;99.90;;;;;;4999996;28;20555;-75
2020/12/02 00:09:00;;;;;;;59.10;40.27;;;6.40;99.90;;;;;;5004017;28;20494;-74
2020/12/02 00:11:28;;;;;;;55.63;41.40;;;6.40;99.90;;;;;;5000552;28;20463;-75
2020/12/02 00:13:58;;;;;;;55.10;41.67;;;6.40;99.90;;;;;;5001680;28;20471;-75
2020/12/02 00:16:27;;;;;;;72.03;43.40;;;6.40;99.90;;;;;;5003802;28;20468;-75
2020/12/02 00:18:56;;;;;;;58.23;42.43;;;6.20;99.90;;;;;;5001474;28;20474;-75
2020/12/02 00:21:23;;;;;;;55.83;41.10;;;6.30;99.90;;;;;;5001455;28;20800;-75
2020/12/02 00:23:52;;;;;;;60.23;41.83;;;6.40;99.90;;;;;;5001009;28;20480;-75
2020/12/02 00:26:21;;;;;;;71.23;43.23;;;6.30;99.90;;;;;;5004700;28;20468;-75
2020/12/02 00:28:48;;;;;;;58.97;42.37;;;6.20;99.90;;;;;;4996031;28;20490;-75
2020/12/02 00:31:15;;;;;;;65.63;43.93;;;6.30;99.90;;;;;;5001149;28;21482;-75
2020/12/02 00:33:42;;;;;;;70.77;43.27;;;6.30;99.90;;;;;;4998189;28;20489;-75
2020/12/02 00:36:08;;;;;;;68.03;43.20;;;6.30;99.90;;;;;;5002444;28;20964;-75
2020/12/02 00:38:36;;;;;;;81.13;46.17;;;6.20;99.90;;;;;;5001060;28;20469;-75
2020/12/02 00:41:03;;;;;;;66.60;43.73;;;6.20;99.90;;;;;;5000253;28;20463;-75
2020/12/02 00:43:31;;;;;;;70.40;43.50;;;6.20;99.90;;;;;;5002696;28;20493;-75
2020/12/02 00:46:00;;;;;;;63.20;43.50;;;6.20;99.90;;;;;;4996324;28;20470;-75
2020/12/02 00:48:30;;;;;;;70.17;42.57;;;6.20;99.90;;;;;;5002016;28;20501;-75
2020/12/02 00:50:59;;;;;;;57.23;41.07;;;6.20;99.90;;;;;;5002087;28;20458;-75
2020/12/02 00:53:29;;;;;;;60.57;42.63;;;6.30;99.90;;;;;;5004177;28;20834;-75
2020/12/02 00:55:56;;;;;;;58.37;42.53;;;6.30;99.90;;;;;;4997802;28;20462;-75
2020/12/02 00:58:40;;;;;;;68.13;42.17;;;6.20;99.90;;;;;;5001810;28;20465;-75
2020/12/02 01:01:08;;;;;;;62.43;43.63;;;6.10;99.90;;;;;;5001833;28;20472;-75
2020/12/02 01:03:35;;;;;;;58.17;43.27;;;6.10;99.90;;;;;;5002603;28;20926;-75
2020/12/02 01:06:09;;;;;;;52.60;39.90;;;6.20;99.90;;;;;;5005652;28;20458;-75
2020/12/02 01:08:40;;;;;;;58.93;41.93;;;6.20;99.90;;;;;;5001003;28;20476;-75
2020/12/02 01:11:18;;;;;;;54.47;39.10;;;6.20;99.90;;;;;;5001438;28;20464;-75
2020/12/02 01:13:46;;;;;;;51.20;39.93;;;6.30;99.90;;;;;;5000022;28;20500;-75
2020/12/02 01:16:17;;;;;;;55.93;40.50;;;6.10;99.90;;;;;;5003568;28;20976;-75
2020/12/02 01:18:43;;;;;;;55.90;40.70;;;6.10;99.90;;;;;;4999609;28;20578;-75
2020/12/02 01:21:23;;;;;;;53.40;41.67;;;6.00;99.90;;;;;;5003396;28;20476;-75
2020/12/02 01:23:55;;;;;;;56.97;40.87;;;6.10;99.90;;;;;;5000075;28;20489;-75
2020/12/02 01:26:26;;;;;;;51.10;40.60;;;6.00;99.90;;;;;;4995330;28;20873;-75
2020/12/02 01:28:56;;;;;;;66.07;42.30;;;6.10;99.90;;;;;;5000754;28;20498;-75
2020/12/02 01:31:23;;;;;;;60.60;42.90;;;5.90;99.90;;;;;;4997808;28;20467;-75
2020/12/02 01:33:51;;;;;;;59.80;42.17;;;5.80;99.90;;;;;;5000936;28;20465;-75
2020/12/02 01:36:22;;;;;;;55.63;40.97;;;5.70;99.90;;;;;;4999213;28;20466;-75
2020/12/02 01:38:52;;;;;;;70.73;41.20;;;5.60;99.90;;;;;;5000669;28;20587;-74
2020/12/02 01:41:18;;;;;;;60.87;42.57;;;5.60;99.90;;;;;;4996900;28;20461;-75
2020/12/02 01:43:47;;;;;;;61.33;41.80;;;5.60;99.90;;;;;;5000270;28;20494;-75
2020/12/02 01:46:26;;;;;;;69.07;44.00;;;5.70;99.90;;;;;;5003181;28;20871;-74
2020/12/02 01:49:20;;;;;;;71.27;42.20;;;5.80;99.90;;;;;;5000573;28;20549;-74
2020/12/02 01:52:17;;;;;;;65.87;42.20;;;5.90;99.90;;;;;;5000267;28;20464;-74
2020/12/02 01:54:51;;;;;;;59.97;41.63;;;5.90;99.90;;;;;;5002759;28;20457;-73
2020/12/02 01:57:23;;;;;;;60.70;41.83;;;5.80;99.90;;;;;;5005460;28;20485;-73
2020/12/02 01:59:55;;;;;;;60.80;42.30;;;5.80;99.90;;;;;;5001748;28;20466;-73
2020/12/02 02:02:32;;;;;;;63.20;41.97;;;5.80;99.90;;;;;;5003180;28;20493;-73
2020/12/02 02:05:06;;;;;;;65.30;46.17;;;5.70;99.90;;;;;;4993295;28;20475;-73
2020/12/02 02:07:36;;;;;;;59.47;39.80;;;5.80;99.90;;;;;;5000850;28;20552;-73
2020/12/02 02:10:13;;;;;;;57.33;42.13;;;5.70;99.90;;;;;;5001452;28;20497;-74
2020/12/02 02:13:06;;;;;;;57.83;43.07;;;5.80;99.90;;;;;;5003920;28;20465;-73
2020/12/02 02:15:44;;;;;;;59.63;42.90;;;5.80;99.90;;;;;;5002192;28;20461;-73
2020/12/02 02:18:14;;;;;;;54.43;40.60;;;5.90;99.90;;;;;;5000924;28;20465;-73
2020/12/02 02:20:44;;;;;;;62.57;41.33;;;5.90;99.90;;;;;;5004129;28;20964;-73
2020/12/02 02:23:12;;;;;;;62.33;41.87;;;5.80;99.90;;;;;;5001974;28;20469;-73
2020/12/02 02:25:41;;;;;;;68.13;44.90;;;5.80;99.90;;;;;;5002191;28;20457;-73
2020/12/02 02:28:10;;;;;;;64.93;43.33;;;5.80;99.90;;;;;;5005546;28;20776;-73
2020/12/02 02:30:36;;;;;;;65.57;42.03;;;5.80;99.90;;;;;;5001523;28;20470;-74
2020/12/02 02:33:03;;;;;;;60.37;41.90;;;5.80;99.90;;;;;;5003927;28;20956;-74
2020/12/02 02:35:30;;;;;;;60.10;40.57;;;5.80;99.90;;;;;;5000013;28;20467;-74
2020/12/02 02:37:56;;;;;;;60.53;41.67;;;5.90;99.90;;;;;;5002896;28;20511;-74
2020/12/02 02:40:22;;;;;;;67.07;45.20;;;5.90;99.90;;;;;;5003147;28;20471;-73
2020/12/02 02:42:51;;;;;;;62.13;41.27;;;6.00;99.90;;;;;;5005230;28;20836;-74
2020/12/02 02:45:23;;;;;;;66.80;40.90;;;6.00;99.90;;;;;;5011628;28;20458;-73
2020/12/02 02:47:50;;;;;;;65.30;43.20;;;5.90;99.90;;;;;;5005341;28;20485;-73
2020/12/02 02:50:18;;;;;;;58.53;40.60;;;5.90;99.90;;;;;;5001299;28;20827;-73
2020/12/02 02:52:45;;;;;;;66.43;42.80;;;5.90;99.90;;;;;;5002935;28;20467;-73
2020/12/02 02:55:14;;;;;;;60.50;41.13;;;5.90;99.90;;;;;;5005196;28;20469;-73
2020/12/02 02:57:41;;;;;;;64.37;41.63;;;5.90;99.90;;;;;;4999565;28;20461;-73
2020/12/02 03:00:11;;;;;;;62.87;40.33;;;5.90;99.90;;;;;;5008107;28;20493;-72
2020/12/02 03:02:39;;;;;;;77.07;41.40;;;5.90;99.90;;;;;;5008060;28;20469;-74
2020/12/02 03:05:08;;;;;;;74.53;41.57;;;6.00;99.90;;;;;;5002040;28;20947;-73
2020/12/02 03:07:35;;;;;;;59.20;41.00;;;6.00;99.90;;;;;;5001936;28;20479;-73
2020/12/02 03:10:04;;;;;;;57.13;42.30;;;6.00;99.90;;;;;;5004209;28;20469;-73
2020/12/02 03:12:31;;;;;;;63.30;40.57;;;6.00;99.90;;;;;;5002787;28;20470;-73
2020/12/02 03:14:58;;;;;;;69.87;42.07;;;5.90;99.90;;;;;;5003681;28;20469;-73
2020/12/02 03:17:26;;;;;;;71.20;41.47;;;6.00;99.90;;;;;;5008505;28;20505;-73
2020/12/02 03:19:58;;;;;;;70.57;41.80;;;6.00;99.90;;;;;;5003568;28;20832;-73
2020/12/02 03:22:29;;;;;;;57.90;41.30;;;6.00;99.90;;;;;;4998847;28;20487;-73
2020/12/02 03:24:57;;;;;;;53.93;40.07;;;6.00;99.90;;;;;;4997205;28;20494;-73
2020/12/02 03:27:24;;;;;;;57.80;39.60;;;6.00;99.90;;;;;;5004254;28;20459;-73
2020/12/02 03:29:52;;;;;;;62.20;41.53;;;6.00;99.90;;;;;;5003234;28;20489;-73
2020/12/02 03:32:19;;;;;;;64.40;41.13;;;5.90;99.90;;;;;;5001459;28;20474;-73
2020/12/02 03:34:46;;;;;;;68.10;41.70;;;5.90;99.90;;;;;;5004248;28;20968;-73
2020/12/02 03:37:13;;;;;;;60.17;40.47;;;5.90;99.90;;;;;;5003665;28;20962;-73
2020/12/02 03:39:39;;;;;;;62.07;40.30;;;5.90;99.90;;;;;;5001967;28;20510;-73
2020/12/02 03:42:07;;;;;;;70.07;41.13;;;5.90;99.90;;;;;;5001219;28;20489;-73
2020/12/02 03:44:36;;;;;;;59.70;39.47;;;5.90;99.90;;;;;;5001048;28;20957;-73
2020/12/02 03:47:02;;;;;;;63.73;39.63;;;6.00;99.90;;;;;;4999580;28;20466;-72
2020/12/02 03:49:31;;;;;;;58.93;39.93;;;6.00;99.90;;;;;;5000892;28;20501;-73
2020/12/02 03:51:57;;;;;;;69.57;38.63;;;6.00;99.90;;;;;;4997072;28;20454;-73
2020/12/02 03:54:25;;;;;;;65.50;37.90;;;6.00;99.90;;;;;;5005919;28;20466;-72
2020/12/02 03:56:53;;;;;;;59.37;37.77;;;6.10;99.90;;;;;;5000584;28;20462;-73
2020/12/02 03:59:19;;;;;;;49.10;36.70;;;6.00;99.90;;;;;;5000266;28;20983;-73
2020/12/02 04:01:46;;;;;;;71.10;35.97;;;6.00;99.90;;;;;;5004624;28;20454;-73
2020/12/02 04:04:13;;;;;;;78.07;40.03;;;6.00;99.90;;;;;;5005206;28;20555;-73
2020/12/02 04:06:41;;;;;;;73.93;39.20;;;6.00;99.90;;;;;;5003349;28;20940;-73
2020/12/02 04:09:07;;;;;;;75.90;36.57;;;6.00;99.90;;;;;;5002580;28;20507;-73
2020/12/02 04:11:35;;;;;;;59.40;38.97;;;6.00;99.90;;;;;;5000266;28;20455;-72
2020/12/02 04:14:02;;;;;;;57.27;38.40;;;6.00;99.90;;;;;;5002478;28;20478;-72
2020/12/02 04:16:29;;;;;;;55.90;37.13;;;6.00;99.90;;;;;;4997120;28;20468;-73
2020/12/02 04:18:57;;;;;;;53.77;36.20;;;6.00;99.90;;;;;;5004313;28;20474;-72
2020/12/02 04:21:24;;;;;;;55.93;35.87;;;6.00;99.90;;;;;;5003594;28;20464;-73
2020/12/02 04:23:51;;;;;;;52.83;36.47;;;6.00;99.90;;;;;;5002536;28;20525;-73
2020/12/02 04:26:17;;;;;;;46.97;36.00;;;6.00;99.90;;;;;;5000868;28;20470;-73
2020/12/02 04:28:44;;;;;;;50.87;34.57;;;6.00;99.90;;;;;;5001454;28;20494;-73
2020/12/02 04:31:11;;;;;;;51.63;35.37;;;5.90;99.90;;;;;;5005155;28;20472;-73
2020/12/02 04:33:38;;;;;;;54.37;37.03;;;5.90;99.90;;;;;;5003459;28;20515;-72
2020/12/02 04:36:05;;;;;;;58.43;37.00;;;6.00;99.90;;;;;;5005038;28;20491;-73
2020/12/02 04:38:32;;;;;;;52.00;34.73;;;5.90;99.90;;;;;;5000737;28;20483;-73
2020/12/02 04:41:03;;;;;;;60.70;37.00;;;5.90;99.90;;;;;;5000126;28;20465;-73
2020/12/02 04:43:34;;;;;;;53.80;35.53;;;5.90;99.90;;;;;;5001592;28;20474;-73
2020/12/02 04:46:04;;;;;;;62.10;37.40;;;6.00;99.90;;;;;;4997686;28;20469;-73
2020/12/02 04:48:32;;;;;;;44.50;35.80;;;6.00;99.90;;;;;;4996238;28;20486;-73
2020/12/02 04:51:02;;;;;;;64.60;37.03;;;5.90;99.90;;;;;;5005192;28;20474;-73
2020/12/02 04:53:28;;;;;;;57.77;35.60;;;5.80;99.90;;;;;;5003863;28;20461;-73
2020/12/02 04:55:57;;;;;;;51.50;37.73;;;5.90;99.90;;;;;;4999692;28;20476;-73
2020/12/02 04:58:31;;;;;;;44.80;34.17;;;5.80;99.90;;;;;;5003267;28;20505;-73
2020/12/02 05:01:19;;;;;;;46.53;34.77;;;5.90;99.90;;;;;;4999885;28;20458;-73
2020/12/02 05:03:52;;;;;;;52.83;32.77;;;5.80;99.90;;;;;;5002685;28;20820;-72
2020/12/02 05:06:33;;;;;;;54.33;35.40;;;5.80;99.90;;;;;;5000846;28;21229;-73
2020/12/02 05:09:11;;;;;;;49.23;35.33;;;5.80;99.90;;;;;;5002818;28;20490;-73
2020/12/02 05:11:39;;;;;;;55.23;35.17;;;5.90;99.90;;;;;;4993734;28;20550;-73
2020/12/02 05:14:07;;;;;;;47.70;34.37;;;5.80;99.90;;;;;;4995044;28;20483;-73
2020/12/02 05:16:34;;;;;;;46.93;33.63;;;5.90;99.90;;;;;;5000396;28;20462;-73
2020/12/02 05:19:03;;;;;;;48.50;35.87;;;5.90;99.90;;;;;;5004020;28;20497;-73
2020/12/02 05:21:31;;;;;;;42.90;34.30;;;5.90;99.90;;;;;;5000171;28;20503;-74
2020/12/02 05:24:07;;;;;;;56.27;37.83;;;6.00;99.90;;;;;;4995316;28;20910;-73
2020/12/02 05:26:35;;;;;;;60.67;37.10;;;6.00;99.90;;;;;;4999292;28;20474;-73
2020/12/02 05:29:17;;;;;;;51.70;36.10;;;6.00;99.90;;;;;;4996985;28;20493;-74
2020/12/02 05:31:45;;;;;;;62.37;37.97;;;6.00;99.90;;;;;;5000702;28;20462;-73
2020/12/02 05:34:15;;;;;;;58.10;36.37;;;6.00;99.90;;;;;;4999117;28;20979;-73
2020/12/02 05:36:46;;;;;;;44.37;33.50;;;6.00;99.90;;;;;;5001140;28;20935;-73
2020/12/02 05:39:21;;;;;;;56.73;33.50;;;6.00;99.90;;;;;;5001233;28;21012;-73
2020/12/02 05:41:52;;;;;;;43.53;34.87;;;6.00;99.90;;;;;;4998326;28;20457;-73
2020/12/02 05:44:21;;;;;;;45.73;33.97;;;6.00;99.90;;;;;;5000398;28;20466;-73
2020/12/02 05:46:56;;;;;;;39.00;34.77;;;6.00;99.90;;;;;;4998464;28;20473;-73
2020/12/02 05:49:41;;;;;;;48.33;36.27;;;6.00;99.90;;;;;;4998016;28;20495;-73
2020/12/02 05:52:13;;;;;;;66.30;36.70;;;5.90;99.90;;;;;;4999076;28;20909;-74
2020/12/02 05:54:41;;;;;;;43.90;36.10;;;5.90;99.90;;;;;;4996538;28;20470;-74
2020/12/02 05:57:10;;;;;;;48.00;35.57;;;6.00;99.90;;;;;;5008816;28;20466;-73
2020/12/02 05:59:36;;;;;;;47.27;35.83;;;6.00;99.90;;;;;;5010707;28;20462;-73
2020/12/02 06:02:05;;;;;;;40.70;34.30;;;6.10;99.90;;;;;;5007486;28;20461;-73
2020/12/02 06:04:32;;;;;;;47.23;33.80;;;6.10;99.90;;;;;;5002440;28;20477;-73
2020/12/02 06:06:59;;;;;;;44.80;34.63;;;6.10;99.90;;;;;;5005876;28;20455;-73
2020/12/02 06:09:40;;;;;;;45.30;35.90;;;6.10;99.90;;;;;;5005932;28;20498;-73
2020/12/02 06:12:11;;;;;;;41.60;34.30;;;6.10;99.90;;;;;;5007348;28;20458;-73
2020/12/02 06:14:38;;;;;;;47.97;34.80;;;6.10;99.90;;;;;;4994650;28;21169;-73
2020/12/02 06:17:10;;;;;;;46.10;34.50;;;6.10;99.90;;;;;;5001855;28;20467;-73
2020/12/02 06:19:50;;;;;;;53.97;35.27;;;6.10;99.90;;;;;;5003164;28;20465;-73
2020/12/02 06:22:34;;;;;;;52.37;34.37;;;6.10;99.90;;;;;;5000066;28;20464;-73
2020/12/02 06:25:01;;;;;;;42.77;33.93;;;6.10;99.90;;;;;;4992769;28;20494;-73
2020/12/02 06:27:43;;;;;;;42.30;33.70;;;6.10;99.90;;;;;;5004476;28;20469;-73
2020/12/02 06:30:22;;;;;;;57.77;35.30;;;6.20;99.90;;;;;;4999870;28;20549;-73
2020/12/02 06:33:15;;;;;;;42.93;34.77;;;6.20;99.90;;;;;;5001968;28;20515;-73
2020/12/02 06:35:42;;;;;;;47.13;34.17;;;6.20;99.90;;;;;;5002438;28;20544;-73
2020/12/02 06:38:25;;;;;;;46.63;34.60;;;6.10;99.90;;;;;;4999260;28;20495;-73
2020/12/02 06:41:30;;;;;;;50.13;36.97;;;6.00;99.90;;;;;;4998412;28;20810;-73
2020/12/02 06:44:57;;;;;;;40.67;33.47;;;6.00;99.90;;;;;;5001879;28;20490;-74
2020/12/02 06:47:28;;;;;;;46.57;35.97;;;6.00;99.90;;;;;;5000186;28;20973;-73
2020/12/02 06:50:07;;;;;;;43.87;35.03;;;6.00;99.90;;;;;;4998189;28;20497;-73
2020/12/02 06:52:36;;;;;;;40.83;33.67;;;5.90;99.90;;;;;;5002058;28;20844;-73
2020/12/02 06:55:18;;;;;;;55.33;36.80;;;6.00;99.90;;;;;;4999904;28;20481;-73
2020/12/02 06:57:46;;;;;;;41.37;35.60;;;6.10;99.90;;;;;;5001060;28;20458;-74
2020/12/02 07:00:22;;;;;;;70.40;38.70;;;6.10;99.90;;;;;;5003433;28;20811;-73
2020/12/02 07:02:56;;;;;;;42.57;33.67;;;6.00;99.90;;;;;;5005286;28;20465;-73
2020/12/02 07:05:27;;;;;;;49.83;35.43;;;6.00;99.90;;;;;;4999582;28;20476;-73
2020/12/02 07:08:13;;;;;;;48.00;36.77;;;6.00;99.90;;;;;;4998146;28;20490;-74
2020/12/02 07:10:41;;;;;;;54.80;36.23;;;6.00;99.90;;;;;;5002142;28;20469;-73
2020/12/02 07:13:14;;;;;;;45.77;35.20;;;6.00;99.90;;;;;;5002866;28;20467;-73
2020/12/02 07:15:40;;;;;;;41.20;35.43;;;6.00;99.90;;;;;;5001117;28;20465;-73
2020/12/02 07:18:13;;;;;;;52.67;37.47;;;5.90;99.90;;;;;;5001452;28;20824;-73
2020/12/02 07:20:44;;;;;;;51.43;38.47;;;5.90;99.90;;;;;;4998688;28;21237;-74
2020/12/02 07:23:13;;;;;;;47.33;36.07;;;5.80;99.90;;;;;;4997462;28;20474;-73
2020/12/02 07:25:40;;;;;;;59.80;36.33;;;5.80;99.90;;;;;;4997747;28;20476;-73
2020/12/02 07:28:14;;;;;;;54.50;36.27;;;5.80;99.90;;;;;;5003883;28;20506;-74
2020/12/02 07:30:41;;;;;;;53.57;35.97;;;5.90;99.90;;;;;;4998814;28;20945;-73
2020/12/02 07:33:22;;;;;;;54.37;35.80;;;6.00;99.90;;;;;;4997352;28;20490;-73
2020/12/02 07:36:04;;;;;;;55.63;35.83;;;5.90;99.90;;;;;;4994387;28;20468;-73
2020/12/02 07:38:30;;;;;;;48.63;37.27;;;5.90;99.90;;;;;;4994572;28;20471;-74
2020/12/02 07:41:10;;;;;;;49.30;36.07;;;5.90;99.90;;;;;;5000502;28;20548;-73
2020/12/02 07:43:37;;;;;;;62.60;38.57;;;5.90;99.90;;;;;;4994609;28;20593;-73
2020/12/02 07:46:05;;;;;;;57.57;38.50;;;5.90;99.90;;;;;;4999623;28;20468;-73
2020/12/02 07:48:32;;;;;;;57.23;38.50;;;5.90;99.90;;;;;;4998402;28;21022;-74
2020/12/02 07:51:04;;;;;;;54.50;35.43;;;5.90;99.90;;;;;;4999451;28;21032;-74
2020/12/02 07:53:48;;;;;;;67.03;38.90;;;5.90;99.90;;;;;;4990101;28;20466;-73
2020/12/02 07:56:23;;;;;;;53.37;37.03;;;5.90;99.90;;;;;;4992869;28;20481;-73
2020/12/02 07:58:51;;;;;;;57.30;38.70;;;6.00;99.90;;;;;;5002658;28;20457;-73
2020/12/02 08:01:39;;;;;;;57.10;38.00;;;6.00;99.90;;;;;;5004591;28;20899;-74
2020/12/02 08:04:29;;;;;;;54.93;35.30;;;6.00;99.90;;;;;;4994226;28;20464;-73
2020/12/02 08:07:01;;;;;;;62.10;38.73;;;6.00;99.90;;;;;;5001485;28;20548;-73
2020/12/02 08:09:31;;;;;;;60.17;37.50;;;6.10;99.90;;;;;;5001090;28;21022;-73
2020/12/02 08:12:01;;;;;;;54.33;38.70;;;6.20;99.90;;;;;;5001212;28;20531;-73
2020/12/02 08:14:31;;;;;;;64.77;38.77;;;6.20;99.90;;;;;;4995514;28;20975;-74
2020/12/02 08:17:06;;;;;;;49.20;37.40;;;6.30;99.90;;;;;;5004334;28;20466;-73
2020/12/02 08:19:35;;;;;;;54.87;35.83;;;6.30;99.90;;;;;;5004126;28;20477;-73
2020/12/02 08:22:02;;;;;;;47.47;37.37;;;6.30;99.90;;;;;;5001364;28;20569;-73
2020/12/02 08:24:41;;;;;;;53.03;38.83;;;6.30;99.90;;;;;;4995537;28;20513;-74
2020/12/02 08:27:10;;;;;;;57.97;38.50;;;6.20;99.90;;;;;;5002724;28;20471;-73
2020/12/02 08:29:37;;;;;;;62.80;38.17;;;6.20;99.90;;;;;;4998976;28;21008;-74
2020/12/02 08:32:17;;;;;;;56.87;38.70;;;6.20;99.90;;;;;;5001829;28;20466;-73
2020/12/02 08:34:46;;;;;;;67.50;39.50;;;6.20;99.90;;;;;;5002081;28;20584;-74
2020/12/02 08:37:33;;;;;;;62.17;39.57;;;6.20;99.90;;;;;;5000878;28;20467;-73
2020/12/02 08:40:21;;;;;;;58.67;37.93;;;6.20;99.90;;;;;;5003402;28;20461;-74
2020/12/02 08:42:47;;;;;;;65.63;38.80;;;6.20;99.90;;;;;;5002539;28;20498;-73
2020/12/02 08:45:19;;;;;;;56.07;38.07;;;6.30;99.90;;;;;;5004062;28;20476;-74
2020/12/02 08:47:53;;;;;;;64.03;39.27;;;6.30;99.90;;;;;;5002821;28;20835;-73
2020/12/02 08:50:24;;;;;;;63.83;39.40;;;6.30;99.90;;;;;;5002698;28;20868;-74
2020/12/02 08:52:54;;;;;;;55.00;37.90;;;6.30;99.90;;;;;;5007887;28;20943;-73
2020/12/02 08:55:22;;;;;;;56.90;38.87;;;6.30;99.90;;;;;;5002381;28;20462;-73
2020/12/02 08:57:48;;;;;;;48.07;38.70;;;6.30;99.90;;;;;;5004850;28;20475;-73
2020/12/02 09:00:16;;;;;;;55.40;36.90;;;6.30;99.90;;;;;;5003789;28;20496;-73
2020/12/02 09:02:42;;;;;;;47.03;37.33;;;6.40;99.90;;;;;;5001967;28;21069;-73
2020/12/02 09:05:09;;;;;;;46.23;37.43;;;6.40;99.90;;;;;;5002096;28;20488;-74
2020/12/02 09:07:35;;;;;;;49.13;38.43;;;6.50;99.90;;;;;;5004410;28;20952;-73
2020/12/02 09:10:02;;;;;;;51.63;38.30;;;6.50;99.90;;;;;;4998368;28;20545;-73
2020/12/02 09:12:30;;;;;;;56.67;39.40;;;6.50;99.90;;;;;;4997646;28;20489;-73
2020/12/02 09:14:56;;;;;;;54.23;37.50;;;6.50;99.90;;;;;;5001708;28;20965;-73
2020/12/02 09:17:22;;;;;;;52.13;37.30;;;6.40;99.90;;;;;;4997543;28;20466;-74
2020/12/02 09:19:50;;;;;;;49.13;37.23;;;6.50;99.90;;;;;;5000388;28;20463;-74
2020/12/02 09:22:17;;;;;;;46.73;37.70;;;6.40;99.90;;;;;;4999858;28;20966;-74
2020/12/02 09:24:44;;;;;;;42.80;37.77;;;6.40;99.90;;;;;;4996124;28;20533;-73
2020/12/02 09:27:12;;;;;;;42.60;36.67;;;6.40;99.90;;;;;;4997633;28;20474;-74
2020/12/02 09:29:39;;;;;;;52.63;36.70;;;6.30;99.90;;;;;;5003639;28;20494;-73
2020/12/02 09:32:06;;;;;;;46.90;36.07;;;6.20;99.90;;;;;;4995605;28;20452;-74
2020/12/02 09:34:35;;;;;;;47.77;36.77;;;6.20;99.90;;;;;;4995257;28;20470;-73
2020/12/02 09:37:02;;;;;;;42.87;36.17;;;6.20;99.90;;;;;;4999267;28;20488;-73
2020/12/02 09:39:30;;;;;;;41.00;36.17;;;6.20;99.90;;;;;;5000532;28;21058;-73
2020/12/02 09:42:18;;;;;;;43.97;37.10;;;6.20;99.90;;;;;;4997175;28;20458;-74
2020/12/02 09:44:58;;;;;;;48.13;35.50;;;6.20;99.90;;;;;;4997575;28;20994;-73
2020/12/02 09:47:24;;;;;;;47.37;36.43;;;6.20;99.90;;;;;;5005659;28;20458;-73
2020/12/02 09:49:50;;;;;;;57.03;36.50;;;6.20;99.90;;;;;;4999565;28;20504;-73
2020/12/02 09:52:42;;;;;;;53.23;38.07;;;6.20;99.90;;;;;;4999235;28;20477;-74
2020/12/02 09:55:14;;;;;;;52.77;36.30;;;6.20;99.90;;;;;;5002760;28;20473;-73
2020/12/02 09:57:40;;;;;;;49.97;38.73;;;6.30;99.90;;;;;;5001087;28;20965;-74
2020/12/02 10:00:10;;;;;;;54.40;37.80;;;6.30;99.90;;;;;;5002863;28;20481;-74
2020/12/02 10:03:05;;;;;;;44.43;35.87;;;6.30;99.90;;;;;;5006844;28;20464;-74
2020/12/02 10:05:53;;;;;;;42.63;37.00;;;6.30;99.90;;;;;;5002542;28;20471;-74
2020/12/02 10:08:29;;;;;;;50.10;38.20;;;6.40;99.90;;;;;;5002202;28;20458;-74
2020/12/02 10:11:01;;;;;;;52.47;37.60;;;6.40;99.90;;;;;;5002532;28;20465;-74
2020/12/02 10:14:01;;;;;;;49.50;37.57;;;6.40;99.90;;;;;;4997101;28;20520;-74
2020/12/02 10:16:37;;;;;;;61.17;37.43;;;6.50;99.90;;;;;;5002193;28;20458;-73
2020/12/02 10:19:33;;;;;;;39.97;34.40;;;6.60;99.90;;;;;;4997458;28;20464;-73
2020/12/02 10:22:16;;;;;;;47.90;36.60;;;6.60;99.90;;;;;;5002639;28;20489;-73
2020/12/02 10:25:07;;;;;;;51.10;38.37;;;6.70;99.90;;;;;;4999106;28;20532;-73
2020/12/02 10:27:49;;;;;;;43.67;35.87;;;6.60;99.90;;;;;;4994963;28;20468;-74
2020/12/02 10:30:18;;;;;;;50.80;38.20;;;6.70;99.90;;;;;;4996077;28;20485;-73
2020/12/02 10:33:05;;;;;;;42.77;35.20;;;6.70;99.90;;;;;;5002054;28;20476;-73
2020/12/02 10:35:36;;;;;;;54.47;35.43;;;6.70;99.90;;;;;;5003960;28;20922;-73
2020/12/02 10:38:11;;;;;;;42.23;34.00;;;6.70;99.90;;;;;;5000151;28;20827;-74
2020/12/02 10:40:42;;;;;;;38.93;34.70;;;6.70;99.90;;;;;;4994350;28;20466;-74
2020/12/02 10:43:17;;;;;;;38.60;34.13;;;6.50;99.90;;;;;;4996473;28;21115;-73
2020/12/02 10:45:49;;;;;;;38.07;33.47;;;6.60;99.90;;;;;;5005734;28;20516;-73
2020/12/02 10:48:33;;;;;;;35.57;30.80;;;6.50;99.90;;;;;;4999340;28;20823;-73
2020/12/02 10:51:00;;;;;;;35.70;29.90;;;6.40;99.90;;;;;;5001927;28;20485;-74
2020/12/02 10:53:27;;;;;;;36.63;32.67;;;6.50;99.90;;;;;;4998857;28;20931;-74
2020/12/02 10:55:54;;;;;;;33.93;30.23;;;6.50;99.90;;;;;;5002172;28;20453;-74
2020/12/02 10:58:24;;;;;;;36.20;31.93;;;6.50;99.90;;;;;;5000191;28;20472;-73
2020/12/02 11:00:54;;;;;;;42.20;31.27;;;6.60;99.90;;;;;;4999940;28;20577;-74
2020/12/02 11:03:25;;;;;;;34.93;31.33;;;6.60;99.90;;;;;;5001238;28;20457;-74
2020/12/02 11:06:22;;;;;;;35.27;31.20;;;6.70;99.90;;;;;;4996864;28;20987;-74
2020/12/02 11:09:27;;;;;;;36.57;29.50;;;6.80;99.90;;;;;;5007628;28;20520;-74
2020/12/02 11:12:12;;;;;;;34.93;30.30;;;6.70;99.90;;;;;;4998221;28;20476;-74
2020/12/02 11:14:57;;;;;;;33.50;29.90;;;6.80;99.90;;;;;;4998719;28;20463;-73
2020/12/02 11:17:32;;;;;;;33.50;29.07;;;6.80;99.90;;;;;;5004153;28;20466;-74
2020/12/02 11:20:31;;;;;;;32.67;29.47;;;6.60;99.90;;;;;;5002835;28;20553;-74
2020/12/02 11:23:20;;;;;;;33.47;29.93;;;6.60;99.90;;;;;;4991056;28;20957;-74
2020/12/02 11:25:57;;;;;;;32.90;29.37;;;6.80;99.90;;;;;;4990250;28;20469;-74
2020/12/02 11:28:24;;;;;;;31.97;28.67;;;6.70;99.90;;;;;;4995946;28;20744;-74
2020/12/02 11:30:51;;;;;;;33.50;29.93;;;6.80;99.90;;;;;;5000023;28;20498;-74
2020/12/02 11:33:51;;;;;;;33.27;30.00;;;6.80;99.90;;;;;;5001733;28;20465;-74
2020/12/02 11:36:44;;;;;;;35.77;29.90;;;6.70;99.90;;;;;;4999118;28;20672;-74
2020/12/02 11:39:24;;;;;;;32.80;29.27;;;6.70;99.90;;;;;;5003062;28;20463;-74
2020/12/02 11:41:56;;;;;;;34.27;28.20;;;6.60;99.90;;;;;;4999002;28;20466;-74
2020/12/02 11:44:32;;;;;;;37.57;31.30;;;6.60;99.90;;;;;;4997160;28;21088;-74
2020/12/02 11:47:08;;;;;;;32.10;28.60;;;6.60;99.90;;;;;;4996177;28;20461;-74
2020/12/02 11:49:37;;;;;;;30.90;27.77;;;6.70;99.90;;;;;;4991014;28;20498;-74
2020/12/02 11:52:16;;;;;;;32.27;28.97;;;6.60;99.90;;;;;;5001780;28;20878;-74
2020/12/02 11:54:42;;;;;;;33.27;29.63;;;6.60;99.90;;;;;;5001372;28;20476;-74
2020/12/02 11:57:11;;;;;;;33.57;29.97;;;6.60;99.90;;;;;;5002411;28;20976;-74
2020/12/02 11:59:37;;;;;;;35.37;31.57;;;6.50;99.90;;;;;;4999990;28;20472;-74
2020/12/02 12:02:31;;;;;;;32.53;28.80;;;6.50;99.90;;;;;;4995842;28;20467;-74
2020/12/02 12:05:02;;;;;;;34.77;30.80;;;6.40;99.90;;;;;;4996911;28;20474;-74
2020/12/02 12:07:38;;;;;;;34.27;30.60;;;6.50;99.90;;;;;;4998628;28;20852;-74
2020/12/02 12:10:12;;;;;;;39.87;32.00;;;6.60;99.90;;;;;;4997872;28;20906;-74
2020/12/02 12:12:47;;;;;;;37.30;33.30;;;6.60;99.90;;;;;;4998692;28;20461;-74
2020/12/02 12:15:23;;;;;;;37.47;32.23;;;6.60;99.90;;;;;;5000437;28;21018;-74
2020/12/02 12:17:54;;;;;;;40.10;33.13;;;6.50;99.90;;;;;;4996168;28;20471;-74
2020/12/02 12:20:23;;;;;;;37.40;33.50;;;6.50;99.90;;;;;;5000438;28;20967;-74
2020/12/02 12:23:00;;;;;;;38.77;34.60;;;6.50;99.90;;;;;;4999762;28;20475;-74
2020/12/02 12:25:29;;;;;;;38.77;34.57;;;6.50;99.90;;;;;;5000163;28;20493;-73
2020/12/02 12:28:01;;;;;;;43.87;34.10;;;6.50;99.90;;;;;;4996382;28;20482;-73
2020/12/02 12:30:27;;;;;;;44.33;35.60;;;6.60;99.90;;;;;;4997550;28;20823;-73
2020/12/02 12:33:02;;;;;;;45.17;35.83;;;6.60;99.90;;;;;;4993402;28;20832;-73
2020/12/02 12:35:36;;;;;;;42.10;33.17;;;6.60;99.90;;;;;;4994172;28;20471;-74
2020/12/02 12:38:23;;;;;;;48.70;36.10;;;6.50;99.90;;;;;;4994814;28;20481;-74
2020/12/02 12:40:54;;;;;;;42.03;36.43;;;6.40;99.90;;;;;;4993002;28;20827;-74
2020/12/02 12:43:25;;;;;;;52.40;36.50;;;6.50;99.90;;;;;;4994839;28;20482;-74
2020/12/02 12:45:59;;;;;;;46.33;35.33;;;6.40;99.90;;;;;;5002763;28;20470;-74
2020/12/02 12:48:27;;;;;;;42.93;35.07;;;6.40;99.90;;;;;;4999462;28;20473;-74
2020/12/02 12:50:53;;;;;;;49.53;36.57;;;6.30;99.90;;;;;;4996040;28;20467;-74
2020/12/02 12:53:22;;;;;;;53.17;38.43;;;6.20;99.90;;;;;;5000148;28;20819;-74
2020/12/02 12:55:52;;;;;;;55.10;36.70;;;6.30;99.90;;;;;;4996810;28;20452;-74
2020/12/02 12:58:19;;;;;;;60.37;38.57;;;6.20;99.90;;;;;;5003443;28;20469;-74
2020/12/02 13:00:48;;;;;;;60.40;40.17;;;6.20;99.90;;;;;;4996217;28;20499;-75
2020/12/02 13:03:19;;;;;;;60.67;37.43;;;6.10;99.90;;;;;;4996095;28;20817;-74